createdAt,value
2023-03-05T00:01:16.509Z,101313.09
2023-03-05T00:03:44.342Z,101307.13
2023-03-05T00:06:12.181Z,101302.63
2023-03-05T00:08:41.522Z,101306.34
2023-03-05T00:11:11.042Z,101297.13
2023-03-05T00:13:39.891Z,101297.66
2023-03-05T00:16:09.529Z,101302.22
2023-03-05T00:18:37.599Z,101283.34
2023-03-05T00:21:06.343Z,101292.66
2023-03-05T00:23:34.178Z,101297.81
2023-03-05T00:26:05.247Z,101290.94
2023-03-05T00:28:32.984Z,101296.03
2023-03-05T00:31:01.994Z,101290.94
2023-03-05T00:33:29.857Z,101289.94
2023-03-05T00:35:58.613Z,101289.25
2023-03-05T00:38:26.362Z,101291.03
2023-03-05T00:40:54.122Z,101292.81
2023-03-05T00:43:23.255Z,101290.19
2023-03-05T00:45:50.987Z,101286.06
2023-03-05T00:48:19.328Z,101283.44
2023-03-05T00:50:47.128Z,101267.13
2023-03-05T00:53:14.999Z,101275.59
2023-03-05T00:55:42.741Z,101269.28
2023-03-05T00:58:10.866Z,101275.22
2023-03-05T01:00:40.026Z,101270.13
2023-03-05T01:03:07.826Z,101261.50
2023-03-05T01:05:35.747Z,101266.75
2023-03-05T01:08:04.415Z,101254.00
2023-03-05T01:10:32.311Z,101258.16
2023-03-05T01:13:00.126Z,101260.88
2023-03-05T01:15:28.223Z,101255.09
2023-03-05T01:17:57.524Z,101259.31
2023-03-05T01:20:25.325Z,101254.00
2023-03-05T01:22:53.967Z,101257.63
2023-03-05T01:25:21.874Z,101255.88
2023-03-05T01:27:49.683Z,101231.94
2023-03-05T01:30:17.620Z,101240.28
2023-03-05T01:32:45.499Z,101236.91
2023-03-05T01:35:19.057Z,101236.16
2023-03-05T01:37:46.864Z,101234.28
2023-03-05T01:40:17.293Z,101236.75
2023-03-05T01:42:48.129Z,101228.03
2023-03-05T01:45:18.144Z,101220.41
2023-03-05T01:47:46.985Z,101222.31
2023-03-05T01:50:22.080Z,101227.19
2023-03-05T01:52:53.525Z,101194.41
2023-03-05T01:55:24.713Z,101224.16
2023-03-05T01:57:55.072Z,101224.16
2023-03-05T02:00:27.909Z,101212.06
2023-03-05T02:02:58.118Z,101208.59
2023-03-05T02:05:30.847Z,101213.69
2023-03-05T02:08:00.047Z,101200.66
2023-03-05T02:10:30.473Z,101196.44
2023-03-05T02:13:00.833Z,101198.97
2023-03-05T02:15:30.326Z,101199.66
2023-03-05T02:17:58.138Z,101195.34
2023-03-05T02:20:29.844Z,101188.72
2023-03-05T02:22:59.232Z,101185.63
2023-03-05T02:25:28.671Z,101194.41
2023-03-05T02:28:01.058Z,101187.47
2023-03-05T02:30:29.303Z,101183.50
2023-03-05T02:32:57.100Z,101184.25
2023-03-05T02:35:25.379Z,101172.41
2023-03-05T02:37:53.355Z,101172.25
2023-03-05T02:40:22.848Z,101167.16
2023-03-05T02:42:50.781Z,101177.16
2023-03-05T02:45:19.526Z,101161.75
2023-03-05T02:47:47.364Z,101161.75
2023-03-05T02:50:16.211Z,101168.69
2023-03-05T02:52:44.021Z,101159.06
2023-03-05T02:55:15.597Z,101161.75
2023-03-05T02:57:46.209Z,101156.69
2023-03-05T03:00:14.999Z,101155.03
2023-03-05T03:02:42.899Z,101149.09
2023-03-05T03:05:11.477Z,101150.78
2023-03-05T03:07:39.203Z,101148.81
2023-03-05T03:10:08.072Z,101154.81
2023-03-05T03:12:38.296Z,101146.41
2023-03-05T03:15:09.888Z,101144.53
2023-03-05T03:17:38.379Z,101140.16
2023-03-05T03:20:08.456Z,101134.56
2023-03-05T03:22:36.209Z,101132.03
2023-03-05T03:25:05.515Z,101136.25
2023-03-05T03:27:33.338Z,101131.94
2023-03-05T03:30:04.634Z,101123.41
2023-03-05T03:32:34.308Z,101125.78
2023-03-05T03:35:03.152Z,101113.28
2023-03-05T03:37:31.058Z,101108.19
2023-03-05T03:39:58.908Z,101109.97
2023-03-05T03:42:26.868Z,101108.53
2023-03-05T03:44:54.631Z,101106.50
2023-03-05T03:47:22.362Z,101104.66
2023-03-05T03:49:55.078Z,101111.56
2023-03-05T03:52:23.156Z,101104.66
2023-03-05T03:54:52.385Z,101095.84
2023-03-05T03:57:20.337Z,101089.94
2023-03-05T03:59:50.188Z,101098.72
2023-03-05T04:02:18.067Z,101095.00
2023-03-05T04:04:45.832Z,101092.31
2023-03-05T04:07:16.171Z,101092.31
2023-03-05T04:09:44.007Z,101087.31
2023-03-05T04:12:11.782Z,101083.84
2023-03-05T04:14:39.581Z,101084.69
2023-03-05T04:17:07.339Z,101072.97
2023-03-05T04:19:35.346Z,101080.31
2023-03-05T04:22:03.153Z,101085.72
2023-03-05T04:24:32.258Z,101077.00
2023-03-05T04:27:00.011Z,101071.38
2023-03-05T04:29:27.873Z,101073.81
2023-03-05T04:31:55.615Z,101077.16
2023-03-05T04:34:23.408Z,101071.09
2023-03-05T04:36:51.169Z,101071.09
2023-03-05T04:39:20.929Z,101066.97
2023-03-05T04:41:50.093Z,101067.81
2023-03-05T04:44:19.137Z,101036.75
2023-03-05T04:46:47.037Z,101058.34
2023-03-05T04:49:15.820Z,101061.91
2023-03-05T04:51:43.599Z,101061.16
2023-03-05T04:54:11.364Z,101053.63
2023-03-05T04:56:39.131Z,101048.38
2023-03-05T04:59:08.285Z,101053.63
2023-03-05T05:01:36.143Z,101044.84
2023-03-05T05:04:04.103Z,101039.59
2023-03-05T05:06:32.002Z,101044.66
2023-03-05T05:08:59.788Z,101042.91
2023-03-05T05:11:27.680Z,101029.47
2023-03-05T05:13:56.481Z,101037.81
2023-03-05T05:16:25.886Z,101029.13
2023-03-05T05:18:53.657Z,101036.97
2023-03-05T05:21:21.733Z,101031.66
2023-03-05T05:23:49.463Z,101028.78
2023-03-05T05:26:17.187Z,101025.25
2023-03-05T05:28:45.176Z,101018.31
2023-03-05T05:31:15.723Z,101009.69
2023-03-05T05:33:45.344Z,101015.84
2023-03-05T05:36:16.299Z,101008.38
2023-03-05T05:38:44.048Z,101016.94
2023-03-05T05:41:14.011Z,101012.56
2023-03-05T05:43:41.922Z,101005.84
2023-03-05T05:46:13.420Z,101020.34
2023-03-05T05:48:41.599Z,101022.03
2023-03-05T05:51:14.877Z,101022.03
2023-03-05T05:53:43.277Z,101016.69
2023-03-05T05:56:11.874Z,101020.34
2023-03-05T05:58:41.456Z,101014.25
2023-03-05T06:01:18.004Z,101016.94
2023-03-05T06:03:47.442Z,101009.22
2023-03-05T06:06:19.558Z,101011.91
2023-03-05T06:08:47.652Z,101010.22
2023-03-05T06:11:18.223Z,101005.00
2023-03-05T06:13:47.751Z,101000.44
2023-03-05T06:16:19.643Z,100996.38
2023-03-05T06:18:47.699Z,100992.91
2023-03-05T06:21:18.803Z,100987.50
2023-03-05T06:23:47.947Z,100977.28
2023-03-05T06:26:20.822Z,100993.50
2023-03-05T06:28:52.157Z,100991.91
2023-03-05T06:31:23.018Z,100991.81
2023-03-05T06:33:51.380Z,100994.34
2023-03-05T06:36:24.759Z,100977.97
2023-03-05T06:38:53.435Z,100983.50
2023-03-05T06:41:24.129Z,100985.38
2023-03-05T06:43:52.110Z,100991.63
2023-03-05T06:46:21.631Z,100992.13
2023-03-05T06:48:52.716Z,101007.84
2023-03-05T06:51:24.633Z,100995.66
2023-03-05T06:53:53.308Z,101004.13
2023-03-05T06:56:22.236Z,101005.59
2023-03-05T06:58:53.494Z,101010.28
2023-03-05T07:01:23.598Z,101000.56
2023-03-05T07:03:52.153Z,100997.94
2023-03-05T07:06:22.809Z,101004.69
2023-03-05T07:08:51.007Z,101003.09
2023-03-05T07:11:20.968Z,100997.66
2023-03-05T07:13:49.299Z,100994.13
2023-03-05T07:16:19.245Z,100990.84
2023-03-05T07:18:47.736Z,100993.94
2023-03-05T07:21:18.966Z,100993.00
2023-03-05T07:23:48.285Z,100996.31
2023-03-05T07:26:16.878Z,100992.66
2023-03-05T07:28:44.767Z,100985.81
2023-03-05T07:31:18.154Z,100975.88
2023-03-05T07:33:46.075Z,100982.44
2023-03-05T07:36:14.338Z,100970.44
2023-03-05T07:38:42.456Z,100987.50
2023-03-05T07:41:13.821Z,100981.50
2023-03-05T07:43:42.060Z,100985.06
2023-03-05T07:46:12.611Z,100982.09
2023-03-05T07:48:40.506Z,100983.97
2023-03-05T07:51:10.043Z,100978.91
2023-03-05T07:53:37.801Z,100977.38
2023-03-05T07:56:06.549Z,100976.94
2023-03-05T07:58:36.268Z,100982.44
2023-03-05T08:01:04.314Z,100966.81
2023-03-05T08:03:32.106Z,100968.41
2023-03-05T08:05:59.854Z,100967.56
2023-03-05T08:08:27.658Z,100969.00
2023-03-05T08:10:55.410Z,100972.81
2023-03-05T08:13:23.144Z,100959.81
2023-03-05T08:15:52.237Z,100963.00
2023-03-05T08:18:20.019Z,100972.25
2023-03-05T08:20:47.762Z,100963.94
2023-03-05T08:23:15.523Z,100967.91
2023-03-05T08:25:43.263Z,100958.09
2023-03-05T08:28:10.964Z,100958.59
2023-03-05T08:30:41.016Z,100953.91
2023-03-05T08:33:10.312Z,100959.25
2023-03-05T08:35:38.082Z,100951.22
2023-03-05T08:38:05.893Z,100952.81
2023-03-05T08:40:34.128Z,100949.44
2023-03-05T08:43:01.800Z,100947.84
2023-03-05T08:45:29.795Z,100936.59
2023-03-05T08:47:57.758Z,100941.84
2023-03-05T08:50:27.214Z,100936.91
2023-03-05T08:52:56.975Z,100936.06
2023-03-05T08:55:24.961Z,100931.56
2023-03-05T08:57:52.914Z,100928.00
2023-03-05T09:00:21.391Z,100927.81
2023-03-05T09:02:49.219Z,100929.31
2023-03-05T09:05:17.243Z,100924.91
2023-03-05T09:07:46.525Z,100921.09
2023-03-05T09:10:14.778Z,100918.09
2023-03-05T09:12:43.356Z,100913.78
2023-03-05T09:15:12.708Z,100914.75
2023-03-05T09:17:42.332Z,100922.03
2023-03-05T09:20:13.445Z,100903.88
2023-03-05T09:22:41.930Z,100909.50
2023-03-05T09:25:13.048Z,100902.19
2023-03-05T09:27:40.796Z,100911.28
2023-03-05T09:30:09.765Z,100907.44
2023-03-05T09:32:37.546Z,100902.75
2023-03-05T09:35:06.195Z,100906.69
2023-03-05T09:37:34.501Z,100901.97
2023-03-05T09:40:02.261Z,100902.53
2023-03-05T09:42:46.656Z,100895.44
2023-03-05T09:45:22.400Z,100897.97
2023-03-05T09:47:56.789Z,100873.16
2023-03-05T09:50:35.810Z,100885.72
2023-03-05T09:53:08.225Z,100882.53
2023-03-05T09:55:40.560Z,100875.13
2023-03-05T09:58:15.162Z,100871.66
2023-03-05T10:00:45.211Z,100867.56
2023-03-05T10:03:18.786Z,100869.97
2023-03-05T10:05:57.100Z,100880.09
2023-03-05T10:08:32.751Z,100872.06
2023-03-05T10:11:07.541Z,100880.47
2023-03-05T10:13:42.847Z,100871.31
2023-03-05T10:16:30.767Z,100869.81
2023-03-05T10:19:05.076Z,100870.56
2023-03-05T10:21:41.191Z,100862.13
2023-03-05T10:24:17.522Z,100859.50
2023-03-05T10:26:58.622Z,100860.34
2023-03-05T10:29:46.600Z,100855.75
2023-03-05T10:32:32.618Z,100850.69
2023-03-05T10:35:30.175Z,100843.97
2023-03-05T10:38:31.428Z,100842.66
2023-03-05T10:41:05.403Z,100849.41
2023-03-05T10:43:41.920Z,100849.69
2023-03-05T10:46:17.911Z,100844.53
2023-03-05T10:48:51.987Z,100845.56
2023-03-05T10:51:24.100Z,100841.75
2023-03-05T10:53:57.042Z,100837.69
2023-03-05T10:56:26.881Z,100833.13
2023-03-05T10:58:55.083Z,100832.53
2023-03-05T11:01:27.918Z,100818.16
2023-03-05T11:03:58.890Z,100829.38
2023-03-05T11:06:35.961Z,100824.69
2023-03-05T11:09:18.740Z,100820.69
2023-03-05T11:12:02.375Z,100815.53
2023-03-05T11:14:33.371Z,100813.47
2023-03-05T11:17:03.848Z,100813.19
2023-03-05T11:19:33.091Z,100813.94
2023-03-05T11:22:14.290Z,100806.06
2023-03-05T11:24:42.274Z,100810.03
2023-03-05T11:27:25.268Z,100799.16
2023-03-05T11:29:53.396Z,100804.38
2023-03-05T11:32:24.679Z,100806.91
2023-03-05T11:34:53.320Z,100796.44
2023-03-05T11:37:25.908Z,100802.63
2023-03-05T11:40:19.030Z,100792.97
2023-03-05T11:42:53.181Z,100797.00
2023-03-05T11:45:21.256Z,100794.19
2023-03-05T11:47:52.170Z,100789.16
2023-03-05T11:50:25.683Z,100785.59
2023-03-05T11:52:55.603Z,100787.16
2023-03-05T11:55:29.499Z,100776.13
2023-03-05T11:58:18.031Z,100776.56
2023-03-05T12:00:47.533Z,100771.16
2023-03-05T12:03:19.876Z,100772.59
2023-03-05T12:05:51.736Z,100761.25
2023-03-05T12:08:25.569Z,100761.25
2023-03-05T12:10:53.751Z,100753.00
2023-03-05T12:13:28.227Z,100752.53
2023-03-05T12:16:07.260Z,100739.13
2023-03-05T12:18:42.369Z,100734.97
2023-03-05T12:21:18.317Z,100732.91
2023-03-05T12:23:49.150Z,100730.28
2023-03-05T12:26:16.944Z,100725.38
2023-03-05T12:28:56.684Z,100715.53
2023-03-05T12:31:35.761Z,100706.09
2023-03-05T12:34:48.812Z,100707.78
2023-03-05T12:37:50.076Z,100701.50
2023-03-05T12:40:24.152Z,100695.59
2023-03-05T12:42:59.636Z,100690.84
2023-03-05T12:45:36.650Z,100693.31
2023-03-05T12:48:42.493Z,100685.88
2023-03-05T12:51:30.904Z,100685.78
2023-03-05T12:54:00.975Z,100680.34
2023-03-05T12:56:32.692Z,100677.81
2023-03-05T12:59:02.756Z,100677.38
2023-03-05T13:01:37.044Z,100666.59
2023-03-05T13:04:11.077Z,100658.53
2023-03-05T13:06:40.613Z,100655.28
2023-03-05T13:09:18.212Z,100657.69
2023-03-05T13:11:50.118Z,100654.97
2023-03-05T13:14:35.567Z,100651.41
2023-03-05T13:17:04.637Z,100648.69
2023-03-05T13:19:36.023Z,100644.03
2023-03-05T13:22:05.711Z,100636.72
2023-03-05T13:24:33.423Z,100629.16
2023-03-05T13:27:02.510Z,100633.97
2023-03-05T13:29:31.202Z,100637.13
2023-03-05T13:32:02.022Z,100621.28
2023-03-05T13:34:46.111Z,100622.84
2023-03-05T13:37:18.677Z,100625.97
2023-03-05T13:39:51.108Z,100618.84
2023-03-05T13:42:23.971Z,100613.19
2023-03-05T13:44:56.445Z,100614.44
2023-03-05T13:47:26.092Z,100612.13
2023-03-05T13:49:59.837Z,100609.41
2023-03-05T13:52:30.794Z,100607.94
2023-03-05T13:54:59.641Z,100604.38
2023-03-05T13:57:38.157Z,100605.66
2023-03-05T14:00:08.556Z,100598.09
2023-03-05T14:02:36.336Z,100590.22
2023-03-05T14:05:04.164Z,100581.69
2023-03-05T14:07:37.185Z,100582.75
2023-03-05T14:10:05.675Z,100583.69
2023-03-05T14:12:38.290Z,100565.75
2023-03-05T14:15:21.938Z,100573.09
2023-03-05T14:17:49.848Z,100568.16
2023-03-05T14:20:25.721Z,100566.19
2023-03-05T14:22:57.840Z,100560.00
2023-03-05T14:25:33.741Z,100559.88
2023-03-05T14:28:04.784Z,100554.25
2023-03-05T14:30:35.176Z,100553.25
2023-03-05T14:33:04.810Z,100549.94
2023-03-05T14:35:32.716Z,100556.97
2023-03-05T14:38:01.347Z,100548.47
2023-03-05T14:40:31.365Z,100537.22
2023-03-05T14:43:00.361Z,100546.03
2023-03-05T14:45:31.136Z,100535.66
2023-03-05T14:48:00.501Z,100528.81
2023-03-05T14:50:31.222Z,100529.06
2023-03-05T14:53:02.432Z,100524.75
2023-03-05T14:55:32.848Z,100522.34
2023-03-05T14:58:05.213Z,100520.66
2023-03-05T15:00:34.426Z,100524.22
2023-03-05T15:03:02.153Z,100523.19
2023-03-05T15:05:30.148Z,100513.84
2023-03-05T15:07:57.944Z,100503.66
2023-03-05T15:10:27.554Z,100503.44
2023-03-05T15:12:55.473Z,100495.69
2023-03-05T15:15:23.682Z,100488.97
2023-03-05T15:17:55.041Z,100479.31
2023-03-05T15:20:24.693Z,100472.84
2023-03-05T15:22:52.878Z,100485.41
2023-03-05T15:25:22.628Z,100474.41
2023-03-05T15:27:51.668Z,100475.34
2023-03-05T15:30:23.378Z,100469.03
2023-03-05T15:32:53.811Z,100463.59
2023-03-05T15:35:22.502Z,100464.44
2023-03-05T15:37:50.264Z,100455.84
2023-03-05T15:40:18.688Z,100443.66
2023-03-05T15:42:46.461Z,100449.88
2023-03-05T15:45:16.153Z,100444.75
2023-03-05T15:47:43.878Z,100441.19
2023-03-05T15:50:13.312Z,100441.19
2023-03-05T15:52:41.090Z,100432.69
2023-03-05T15:55:10.075Z,100436.78
2023-03-05T15:57:43.167Z,100425.56
2023-03-05T16:00:12.529Z,100422.19
2023-03-05T16:02:40.346Z,100407.41
2023-03-05T16:05:09.525Z,100416.00
2023-03-05T16:07:42.336Z,100412.34
2023-03-05T16:10:12.831Z,100409.72
2023-03-05T16:12:43.033Z,100407.22
2023-03-05T16:15:14.568Z,100405.53
2023-03-05T16:17:45.117Z,100405.53
2023-03-05T16:20:14.490Z,100399.34
2023-03-05T16:22:43.624Z,100402.38
2023-03-05T16:25:11.624Z,100386.13
2023-03-05T16:27:39.406Z,100393.38
2023-03-05T16:30:08.666Z,100397.88
2023-03-05T16:32:37.878Z,100391.69
2023-03-05T16:35:06.587Z,100392.84
2023-03-05T16:37:34.473Z,100384.03
2023-03-05T16:40:03.649Z,100386.75
2023-03-05T16:42:31.495Z,100383.41
2023-03-05T16:44:59.418Z,100382.66
2023-03-05T16:47:28.001Z,100373.34
2023-03-05T16:49:55.956Z,100365.41
2023-03-05T16:52:24.447Z,100368.63
2023-03-05T16:54:52.845Z,100369.69
2023-03-05T16:57:23.973Z,100371.13
2023-03-05T16:59:51.905Z,100374.09
2023-03-05T17:02:20.077Z,100356.91
2023-03-05T17:04:48.964Z,100371.97
2023-03-05T17:07:16.934Z,100361.09
2023-03-05T17:09:45.874Z,100368.72
2023-03-05T17:12:13.575Z,100365.50
2023-03-05T17:14:42.619Z,100368.22
2023-03-05T17:17:11.890Z,100365.50
2023-03-05T17:19:40.342Z,100363.19
2023-03-05T17:22:08.406Z,100362.97
2023-03-05T17:24:36.394Z,100368.13
2023-03-05T17:27:04.199Z,100362.88
2023-03-05T17:29:31.902Z,100359.63
2023-03-05T17:32:01.082Z,100357.94
2023-03-05T17:34:35.933Z,100359.63
2023-03-05T17:37:04.525Z,100358.56
2023-03-05T17:39:32.312Z,100353.44
2023-03-05T17:42:00.136Z,100357.75
2023-03-05T17:44:27.915Z,100348.19
2023-03-05T17:46:55.734Z,100355.31
2023-03-05T17:49:24.829Z,100351.03
2023-03-05T17:51:52.545Z,100350.28
2023-03-05T17:54:20.332Z,100348.31
2023-03-05T17:56:48.855Z,100348.50
2023-03-05T17:59:16.640Z,100356.06
2023-03-05T18:01:44.424Z,100356.06
2023-03-05T18:04:12.736Z,100357.94
2023-03-05T18:06:41.801Z,100362.53
2023-03-05T18:09:09.529Z,100350.59
2023-03-05T18:11:37.395Z,100348.81
2023-03-05T18:14:05.147Z,100344.53
2023-03-05T18:16:32.996Z,100335.50
2023-03-05T18:19:00.768Z,100343.56
2023-03-05T18:21:28.750Z,100339.28
2023-03-05T18:23:57.857Z,100344.31
2023-03-05T18:26:25.608Z,100337.63
2023-03-05T18:28:53.793Z,100330.91
2023-03-05T18:31:21.556Z,100336.06
2023-03-05T18:33:50.350Z,100334.19
2023-03-05T18:36:18.663Z,100330.72
2023-03-05T18:38:46.771Z,100329.97
2023-03-05T18:41:21.214Z,100329.25
2023-03-05T18:43:48.967Z,100332.81
2023-03-05T18:46:19.942Z,100329.25
2023-03-05T18:48:48.143Z,100323.69
2023-03-05T18:51:19.552Z,100317.81
2023-03-05T18:53:50.248Z,100315.41
2023-03-05T18:56:20.081Z,100316.69
2023-03-05T18:58:47.924Z,100318.75
2023-03-05T19:01:17.396Z,100317.09
2023-03-05T19:03:45.249Z,100315.19
2023-03-05T19:06:13.023Z,100317.09
2023-03-05T19:08:40.726Z,100321.28
2023-03-05T19:11:16.648Z,100308.91
2023-03-05T19:13:50.318Z,100304.94
2023-03-05T19:16:20.152Z,100304.72
2023-03-05T19:19:17.763Z,100295.72
2023-03-05T19:21:48.059Z,100298.22
2023-03-05T19:24:16.464Z,100296.13
2023-03-05T19:26:44.849Z,100301.56
2023-03-05T19:29:13.986Z,100291.19
2023-03-05T19:31:42.111Z,100294.88
2023-03-05T19:34:09.903Z,100286.06
2023-03-05T19:36:37.630Z,100293.50
2023-03-05T19:39:05.477Z,100290.25
2023-03-05T19:41:33.609Z,100286.06
2023-03-05T19:44:01.936Z,100295.50
2023-03-05T19:46:31.428Z,100287.53
2023-03-05T19:48:59.558Z,100292.78
2023-03-05T19:51:30.758Z,100288.38
2023-03-05T19:53:58.543Z,100289.31
2023-03-05T19:56:26.823Z,100281.66
2023-03-05T19:58:54.649Z,100272.25
2023-03-05T20:01:25.887Z,100280.81
2023-03-05T20:03:56.690Z,100279.88
2023-03-05T20:06:25.891Z,100275.50
2023-03-05T20:08:54.176Z,100263.97
2023-03-05T20:11:23.197Z,100270.69
2023-03-05T20:13:52.268Z,100276.25
2023-03-05T20:16:21.980Z,100269.97
2023-03-05T20:18:52.651Z,100267.00
2023-03-05T20:21:23.273Z,100267.00
2023-03-05T20:23:51.281Z,100265.56
2023-03-05T20:26:19.926Z,100262.31
2023-03-05T20:28:48.273Z,100255.28
2023-03-05T20:31:19.300Z,100260.53
2023-03-05T20:33:47.128Z,100250.25
2023-03-05T20:36:14.889Z,100248.28
2023-03-05T20:38:45.678Z,100248.38
2023-03-05T20:41:16.424Z,100253.72
2023-03-05T20:43:46.077Z,100248.91
2023-03-05T20:46:17.125Z,100243.34
2023-03-05T20:48:45.775Z,100232.25
2023-03-05T20:51:15.013Z,100244.19
2023-03-05T20:53:44.131Z,100235.00
2023-03-05T20:56:11.857Z,100235.00
2023-03-05T20:58:40.199Z,100232.38
2023-03-05T21:01:08.536Z,100227.63
2023-03-05T21:03:37.268Z,100225.47
2023-03-05T21:06:06.324Z,100225.22
2023-03-05T21:08:34.108Z,100224.28
2023-03-05T21:11:06.585Z,100214.75
2023-03-05T21:13:34.884Z,100215.59
2023-03-05T21:16:07.199Z,100220.50
2023-03-05T21:18:35.401Z,100213.06
2023-03-05T21:21:03.880Z,100193.72
2023-03-05T21:23:31.651Z,100206.28
2023-03-05T21:25:59.362Z,100206.28
2023-03-05T21:28:29.401Z,100198.34
2023-03-05T21:30:57.574Z,100195.19
2023-03-05T21:33:27.349Z,100185.88
2023-03-05T21:35:57.986Z,100180.09
2023-03-05T21:38:29.732Z,100179.16
2023-03-05T21:40:59.760Z,100176.97
2023-03-05T21:43:29.188Z,100175.72
2023-03-05T21:45:57.755Z,100171.94
2023-03-05T21:48:26.306Z,100163.16
2023-03-05T21:50:55.146Z,100170.47
2023-03-05T21:53:23.193Z,100167.53
2023-03-05T21:56:26.336Z,100164.72
2023-03-05T21:58:55.500Z,100161.47
2023-03-05T22:01:23.333Z,100152.28
2023-03-05T22:03:51.198Z,100155.19
2023-03-05T22:06:19.805Z,100147.16
2023-03-05T22:08:48.345Z,100140.44
2023-03-05T22:11:18.805Z,100134.06
2023-03-05T22:13:46.562Z,100137.28
2023-03-05T22:16:23.928Z,100125.03
2023-03-05T22:18:51.748Z,100133.22
2023-03-05T22:21:21.789Z,100123.69
2023-03-05T22:23:49.748Z,100126.72
2023-03-05T22:26:17.542Z,100116.16
2023-03-05T22:28:45.346Z,100106.81
2023-03-05T22:31:19.898Z,100113.84
2023-03-05T22:33:49.290Z,100109.78
2023-03-05T22:36:17.718Z,100103.91
2023-03-05T22:38:45.944Z,100100.34
2023-03-05T22:41:15.626Z,100105.81
2023-03-05T22:43:43.523Z,100104.44
2023-03-05T22:46:12.743Z,100099.75
2023-03-05T22:48:41.167Z,100092.53
2023-03-05T22:51:11.325Z,100095.78
2023-03-05T22:53:39.898Z,100094.94
2023-03-05T22:56:08.344Z,100100.59
2023-03-05T22:58:36.380Z,100090.84
2023-03-05T23:01:04.275Z,100091.69
2023-03-05T23:03:32.073Z,100091.91
2023-03-05T23:05:59.855Z,100085.97
2023-03-05T23:08:28.996Z,100086.69
2023-03-05T23:10:56.742Z,100085.13
2023-03-05T23:13:24.473Z,100086.16
2023-03-05T23:15:52.295Z,100081.97
2023-03-05T23:18:20.208Z,100084.28
2023-03-05T23:20:47.943Z,100078.59
2023-03-05T23:23:15.699Z,100075.06
2023-03-05T23:25:44.827Z,100071.50
2023-03-05T23:28:12.564Z,100069.81
2023-03-05T23:30:40.387Z,100065.41
2023-03-05T23:33:12.824Z,100069.44
2023-03-05T23:35:43.183Z,100069.31
2023-03-05T23:38:13.836Z,100067.13
2023-03-05T23:40:45.126Z,100064.09
2023-03-05T23:43:13.682Z,100057.81
2023-03-05T23:45:41.837Z,100075.59
2023-03-05T23:48:09.796Z,100062.53
2023-03-05T23:50:42.853Z,100069.44
2023-03-05T23:53:11.588Z,100055.53
2023-03-05T23:55:43.070Z,100060.13
2023-03-05T23:58:12.676Z,100049.47
